Time;durP1;ratioP1;P1;durP2;ratioP2;P2;SDS_P1;SDS_P2;PMS_P1;PMS_P2;Temp;Humidity;BMP_temperature;BMP_pressure;BME280_temperature;BME280_humidity;BME280_pressure;Samples;Min_cycle;Max_cycle;Signal;HPM_P1;HPM_P2
2022/01/06 10:20:14;;;;;;;2.30;1.40;;;;;;;4.23;96.61;99075.09;5170748;27;20559;-83
2022/01/06 10:22:49;;;;;;;2.47;1.30;;;;;;;4.81;94.63;99094.94;5182770;27;39926;-83
2022/01/06 10:25:18;;;;;;;1.57;1.10;;;;;;;5.63;90.90;99102.38;5165238;27;40815;-84
2022/01/06 10:27:46;;;;;;;3.03;1.00;;;;;;;6.18;86.16;99099.38;5170568;27;43518;-83
2022/01/06 10:30:15;;;;;;;4.03;1.40;;;;;;;6.43;83.15;99068.47;5152030;27;41260;-83
2022/01/06 10:32:43;;;;;;;2.73;1.03;;;;;;;6.99;81.57;99099.41;5169329;27;40776;-83
2022/01/06 10:35:20;;;;;;;3.70;0.90;;;;;;;7.46;78.18;99105.16;5144606;27;41702;-83
2022/01/06 10:37:54;;;;;;;2.87;1.30;;;;;;;7.25;74.94;99117.53;5151982;27;41848;-83
2022/01/06 10:40:24;;;;;;;3.47;1.30;;;;;;;7.09;75.66;99121.75;5169262;27;42192;-82
2022/01/06 10:42:58;;;;;;;2.40;1.13;;;;;;;7.31;75.55;99121.66;5169324;27;40456;-83
2022/01/06 10:45:30;;;;;;;1.43;1.17;;;;;;;7.49;73.73;99131.38;5169547;27;40932;-84
2022/01/06 10:47:59;;;;;;;2.70;1.50;;;;;;;7.15;73.02;99132.03;5168702;27;42052;-83
2022/01/06 10:50:29;;;;;;;3.43;1.00;;;;;;;6.93;74.14;99110.19;5169339;27;42373;-82
2022/01/06 10:53:00;;;;;;;2.10;1.20;;;;;;;7.15;74.86;99127.63;5169007;27;39811;-82
2022/01/06 10:55:29;;;;;;;2.33;1.00;;;;;;;9.59;71.47;99142.00;5168001;27;40691;-84
2022/01/06 10:58:01;;;;;;;3.13;1.20;;;;;;;9.61;65.64;99145.44;5169102;27;43761;-83
2022/01/06 11:00:30;;;;;;;1.33;0.83;;;;;;;9.29;66.12;99152.41;5167163;27;42236;-82
2022/01/06 11:03:08;;;;;;;2.10;1.57;;;;;;;8.88;67.33;99144.88;5167780;27;39202;-83
2022/01/06 11:05:40;;;;;;;2.60;1.30;;;;;;;8.48;67.95;99139.88;5186804;27;43026;-83
2022/01/06 11:08:09;;;;;;;4.10;1.60;;;;;;;9.06;66.40;99147.47;5168410;27;43662;-83
2022/01/06 11:10:45;;;;;;;4.20;1.30;;;;;;;10.17;63.79;99155.53;5169796;27;41878;-83
2022/01/06 11:13:12;;;;;;;2.47;0.90;;;;;;;9.99;62.80;99164.50;5168211;27;40033;-82
2022/01/06 11:15:40;;;;;;;3.07;1.40;;;;;;;10.02;63.05;99124.63;5168578;27;40385;-82
2022/01/06 11:18:08;;;;;;;2.13;1.47;;;;;;;9.99;63.68;99125.66;5166926;27;43438;-84
2022/01/06 11:20:38;;;;;;;7.30;1.83;;;;;;;10.11;65.09;99145.28;5176041;27;42466;-83
2022/01/06 11:23:06;;;;;;;2.90;1.20;;;;;;;10.52;65.08;99128.88;5189295;27;38521;-83
2022/01/06 11:25:36;;;;;;;1.13;0.77;;;;;;;11.88;60.25;99152.38;5189841;27;41803;-83
2022/01/06 11:28:06;;;;;;;2.67;1.13;;;;;;;13.27;55.17;99199.91;5186613;27;43585;-84
2022/01/06 11:30:45;;;;;;;1.87;0.93;;;;;;;14.78;52.56;99204.28;5140865;27;41376;-84
2022/01/06 11:33:14;;;;;;;2.17;0.87;;;;;;;16.33;50.02;99216.25;5137875;27;39032;-84
2022/01/06 11:35:51;;;;;;;3.23;1.00;;;;;;;17.21;45.89;99220.53;5154853;27;41637;-84
2022/01/06 11:38:21;;;;;;;2.70;0.80;;;;;;;18.17;42.02;99263.22;5151142;27;43848;-85
2022/01/06 11:40:50;;;;;;;1.37;0.70;;;;;;;17.48;42.56;99217.34;5154209;27;42838;-85
2022/01/06 11:43:18;;;;;;;2.47;0.77;;;;;;;17.07;41.23;99233.38;5157616;27;38947;-84
2022/01/06 11:45:46;;;;;;;2.80;0.90;;;;;;;16.21;42.51;99249.31;5139581;27;40941;-85
2022/01/06 11:48:16;;;;;;;1.20;0.80;;;;;;;15.08;43.72;99252.69;5143383;27;41912;-84
2022/01/06 11:50:46;;;;;;;2.20;1.10;;;;;;;14.00;46.09;99221.41;5117030;27;41097;-85
2022/01/06 11:53:17;;;;;;;1.30;1.00;;;;;;;13.53;47.30;99215.91;5133906;27;38904;-83
2022/01/06 11:55:51;;;;;;;4.40;0.90;;;;;;;13.66;48.47;99208.78;5166439;27;42776;-83
2022/01/06 11:58:21;;;;;;;1.10;1.10;;;;;;;14.82;47.04;99224.44;5154341;27;41923;-84
2022/01/06 12:00:56;;;;;;;0.70;0.70;;;;;;;14.91;45.20;99235.28;5137491;27;42322;-84
2022/01/06 12:03:34;;;;;;;1.10;0.80;;;;;;;14.91;46.68;99221.09;5150742;27;38928;-83
2022/01/06 12:06:03;;;;;;;2.77;1.00;;;;;;;15.23;44.43;99219.50;5151455;27;41199;-84
2022/01/06 12:08:40;;;;;;;1.93;0.80;;;;;;;14.26;45.38;99216.91;5125551;27;42766;-84
2022/01/06 12:11:19;;;;;;;1.83;1.17;;;;;;;13.49;46.82;99225.88;5146235;27;42138;-85
2022/01/06 12:13:47;;;;;;;2.30;1.20;;;;;;;12.78;47.81;99209.44;5128204;27;39973;-85
2022/01/06 12:16:25;;;;;;;1.80;0.87;;;;;;;12.15;48.95;99199.34;5150497;27;41544;-85
2022/01/06 12:18:53;;;;;;;1.47;1.30;;;;;;;11.60;49.34;99173.59;5134314;27;43336;-83
2022/01/06 12:21:21;;;;;;;1.17;1.07;;;;;;;11.31;50.13;99201.03;5154890;27;43133;-83
2022/01/06 12:24:01;;;;;;;3.23;1.00;;;;;;;10.71;49.87;99180.69;5153457;27;40814;-86
2022/01/06 12:26:29;;;;;;;2.10;0.90;;;;;;;10.37;51.53;99196.81;5126660;27;41855;-84
2022/01/06 12:28:56;;;;;;;2.17;0.70;;;;;;;9.95;52.61;99184.13;5153417;27;42861;-83
2022/01/06 12:31:26;;;;;;;2.27;1.17;;;;;;;9.67;52.55;99193.53;5136790;27;41071;-83
2022/01/06 12:33:59;;;;;;;1.57;1.47;;;;;;;9.32;53.76;99186.63;5153641;27;38906;-82
2022/01/06 12:36:29;;;;;;;0.83;0.80;;;;;;;9.00;53.92;99188.28;5140608;27;41705;-84
2022/01/06 12:39:09;;;;;;;0.73;0.70;;;;;;;8.83;55.50;99182.97;5136399;27;41705;-83
2022/01/06 12:41:43;;;;;;;1.60;0.90;;;;;;;8.70;56.01;99172.19;5130067;27;41352;-83
2022/01/06 12:44:17;;;;;;;0.90;0.90;;;;;;;9.70;54.70;99188.09;5153649;27;39047;-83
2022/01/06 12:46:49;;;;;;;1.00;1.00;;;;;;;9.34;55.22;99174.19;5136953;27;40734;-83
2022/01/06 12:49:17;;;;;;;1.63;0.80;;;;;;;10.21;55.37;99177.41;5136163;27;42230;-83
2022/01/06 12:51:47;;;;;;;0.70;0.70;;;;;;;12.46;51.90;99164.59;5148752;27;42597;-84
2022/01/06 12:54:18;;;;;;;0.90;0.80;;;;;;;13.90;49.40;99208.88;5153329;27;39959;-84
2022/01/06 12:56:47;;;;;;;1.23;1.13;;;;;;;13.49;48.54;99217.06;5154205;27;40843;-85
2022/01/06 12:59:17;;;;;;;0.70;0.70;;;;;;;12.73;48.79;99195.59;5165454;27;43701;-84
2022/01/06 13:01:45;;;;;;;0.80;0.80;;;;;;;12.15;49.75;99205.53;5153594;27;43646;-84
2022/01/06 13:04:14;;;;;;;1.23;0.80;;;;;;;11.58;50.22;99217.06;5136013;27;39826;-84
2022/01/06 13:06:43;;;;;;;1.03;0.80;;;;;;;11.09;51.40;99199.66;5136416;27;40971;-84
2022/01/06 13:09:18;;;;;;;1.30;0.97;;;;;;;10.67;52.01;99210.09;5152264;27;42796;-83
2022/01/06 13:11:50;;;;;;;2.13;1.10;;;;;;;10.38;53.04;99196.72;5131735;27;41690;-83
2022/01/06 13:14:27;;;;;;;2.50;1.23;;;;;;;10.23;53.62;99189.63;5152241;27;39808;-83
2022/01/06 13:17:09;;;;;;;1.20;1.10;;;;;;;10.14;52.27;99213.91;5153538;27;42214;-83
2022/01/06 13:19:42;;;;;;;2.33;1.10;;;;;;;10.06;51.97;99214.34;5152079;27;41810;-83
2022/01/06 13:22:16;;;;;;;2.20;1.30;;;;;;;10.00;53.36;99205.91;5150457;27;42253;-82
2022/01/06 13:24:45;;;;;;;1.90;1.33;;;;;;;9.79;53.07;99186.72;5119499;27;40142;-83
2022/01/06 13:27:14;;;;;;;2.97;0.90;;;;;;;9.90;53.81;99204.66;5135197;27;41929;-83
2022/01/06 13:29:43;;;;;;;1.00;0.90;;;;;;;9.79;52.67;99199.09;5152327;27;43733;-84
2022/01/06 13:32:12;;;;;;;3.03;1.20;;;;;;;9.73;52.76;99203.81;5151785;27;42497;-83
2022/01/06 13:34:43;;;;;;;1.83;1.20;;;;;;;9.59;53.33;99194.88;5146357;27;38825;-84
2022/01/06 13:37:14;;;;;;;1.70;0.80;;;;;;;9.50;53.88;99206.81;5148352;27;42800;-83
2022/01/06 13:39:46;;;;;;;1.30;0.70;;;;;;;9.36;53.69;99204.03;5146482;27;42567;-83
2022/01/06 13:42:27;;;;;;;0.80;0.80;;;;;;;9.36;54.61;99199.59;5149519;27;43162;-82
2022/01/06 13:45:03;;;;;;;3.00;0.90;;;;;;;9.37;54.41;99200.47;5135303;27;38953;-83
2022/01/06 13:47:46;;;;;;;1.53;1.00;;;;;;;9.50;54.73;99204.16;5129851;27;42083;-84
2022/01/06 13:52:59;;;;;;;0.83;0.83;;;;;;;9.58;54.58;99209.91;5146472;27;41240;-84
2022/01/06 13:55:28;;;;;;;2.67;1.10;;;;;;;9.54;53.32;99203.06;5135438;27;38944;-86
2022/01/06 13:57:56;;;;;;;1.10;1.00;;;;;;;9.43;51.70;99217.78;5135154;27;40876;-87
2022/01/06 14:00:24;;;;;;;0.70;0.70;;;;;;;9.25;52.23;99211.66;5150997;27;41852;-85
2022/01/06 14:02:55;;;;;;;3.40;0.90;;;;;;;9.02;52.98;99214.63;5149148;27;43232;-82
2022/01/06 14:05:24;;;;;;;0.73;0.60;;;;;;;8.67;53.15;99209.28;5151791;27;40455;-82
2022/01/06 14:07:52;;;;;;;1.17;0.70;;;;;;;8.59;53.58;99235.22;5152107;27;42995;-83
2022/01/06 14:10:20;;;;;;;1.63;0.73;;;;;;;8.37;54.09;99231.91;5152105;27;41933;-84
2022/01/06 14:12:49;;;;;;;3.13;0.97;;;;;;;8.20;54.05;99241.44;5135402;27;40950;-83
2022/01/06 14:15:19;;;;;;;1.00;0.90;;;;;;;7.99;54.56;99221.31;5152404;27;41053;-83
2022/01/06 14:17:47;;;;;;;1.83;1.03;;;;;;;7.80;54.94;99225.72;5134569;27;40882;-84
2022/01/06 14:20:14;;;;;;;3.30;1.10;;;;;;;7.67;55.54;99219.28;5135847;27;41962;-83
2022/01/06 14:22:41;;;;;;;3.10;1.33;;;;;;;7.52;55.96;99221.69;5153184;27;41661;-83
2022/01/06 14:25:09;;;;;;;0.93;0.93;;;;;;;7.42;55.71;99230.06;5164936;27;39811;-83
2022/01/06 14:27:37;;;;;;;0.80;0.80;;;;;;;7.31;55.70;99237.56;5165962;27;40493;-82
2022/01/06 14:30:08;;;;;;;0.80;0.80;;;;;;;7.14;55.74;99246.22;5168141;27;43004;-82
2022/01/06 14:32:37;;;;;;;0.80;0.80;;;;;;;6.87;56.15;99231.56;5166234;27;43891;-83
2022/01/06 14:35:06;;;;;;;1.73;0.80;;;;;;;6.74;56.78;99242.59;5146364;27;38556;-84
2022/01/06 14:37:33;;;;;;;0.60;0.60;;;;;;;6.64;57.09;99246.53;5165161;27;41002;-83
2022/01/06 14:40:01;;;;;;;3.00;1.20;;;;;;;6.36;57.26;99240.63;5123461;27;41837;-84
2022/01/06 14:42:28;;;;;;;1.60;0.80;;;;;;;6.35;57.42;99259.97;5152829;27;42354;-84
2022/01/06 14:44:56;;;;;;;2.80;1.00;;;;;;;6.13;58.05;99250.28;5153411;27;39786;-84
2022/01/06 14:47:25;;;;;;;2.40;0.70;;;;;;;6.05;58.61;99257.63;5153549;27;40595;-82
2022/01/06 14:49:53;;;;;;;0.70;0.63;;;;;;;5.99;59.14;99262.22;5153130;27;42997;-83
2022/01/06 14:52:21;;;;;;;0.83;0.70;;;;;;;5.86;59.18;99261.78;5153530;27;42400;-81
2022/01/06 14:54:49;;;;;;;0.87;0.87;;;;;;;5.77;59.33;99264.78;5169784;27;40986;-83
2022/01/06 14:57:17;;;;;;;0.63;0.60;;;;;;;5.47;59.80;99229.09;5152104;27;41520;-83
2022/01/06 14:59:44;;;;;;;2.43;0.90;;;;;;;5.49;59.85;99256.16;5134656;27;42300;-83
2022/01/06 15:02:12;;;;;;;0.60;0.53;;;;;;;5.47;60.13;99273.72;5151836;27;43161;-83
2022/01/06 15:04:41;;;;;;;0.60;0.60;;;;;;;5.39;60.49;99271.38;5134448;27;38970;-82
2022/01/06 15:07:08;;;;;;;0.80;0.80;;;;;;;5.32;60.54;99272.50;5157679;27;42690;-82
2022/01/06 15:09:36;;;;;;;0.87;0.77;;;;;;;5.26;61.00;99270.09;5155445;27;42809;-82
2022/01/06 15:12:05;;;;;;;0.70;0.70;;;;;;;5.06;61.28;99252.41;5173655;27;42400;-82
2022/01/06 15:14:33;;;;;;;2.30;1.17;;;;;;;5.06;61.68;99273.41;5138183;27;39968;-82
2022/01/06 15:17:00;;;;;;;1.03;0.83;;;;;;;4.92;61.93;99260.75;5155299;27;41721;-82
2022/01/06 15:19:28;;;;;;;1.40;0.90;;;;;;;4.82;62.05;99268.97;5155731;27;43431;-82
2022/01/06 15:21:57;;;;;;;0.90;0.90;;;;;;;4.68;62.35;99267.66;5156356;27;42193;-82
2022/01/06 15:24:25;;;;;;;1.70;0.90;;;;;;;4.59;62.51;99264.44;5161157;27;40867;-82
2022/01/06 15:26:52;;;;;;;5.17;1.73;;;;;;;4.48;62.52;99270.03;5155858;27;41638;-84
2022/01/06 15:29:21;;;;;;;2.97;1.50;;;;;;;4.39;62.97;99270.31;5156193;27;43303;-81
2022/01/06 15:31:49;;;;;;;3.80;1.67;;;;;;;4.18;63.19;99250.03;5138334;27;41851;-82
2022/01/06 15:34:16;;;;;;;2.37;1.03;;;;;;;4.18;63.57;99260.50;5155432;27;38896;-82
2022/01/06 15:36:44;;;;;;;2.77;1.23;;;;;;;3.98;63.75;99254.06;5152871;27;41729;-82
2022/01/06 15:39:13;;;;;;;3.80;1.47;;;;;;;3.95;63.80;99269.91;5138673;27;43085;-82
2022/01/06 15:41:40;;;;;;;2.13;1.07;;;;;;;3.89;64.23;99275.31;5156390;27;42959;-82
2022/01/06 15:44:08;;;;;;;3.47;1.87;;;;;;;3.78;64.36;99274.75;5173835;27;40103;-83
2022/01/06 15:46:36;;;;;;;3.87;2.57;;;;;;;3.70;64.59;99268.91;5135783;27;41733;-83
2022/01/06 15:49:03;;;;;;;8.10;2.47;;;;;;;3.65;64.74;99281.25;5135288;27;43033;-83
2022/01/06 15:51:31;;;;;;;5.47;2.97;;;;;;;3.57;64.86;99278.00;5135427;27;42238;-83
2022/01/06 15:53:59;;;;;;;5.47;2.63;;;;;;;3.42;65.18;99267.94;5137802;27;38754;-83
2022/01/06 15:56:28;;;;;;;5.97;1.93;;;;;;;3.40;65.53;99274.97;5156577;27;41789;-84
2022/01/06 15:58:57;;;;;;;3.70;1.67;;;;;;;3.14;65.52;99247.72;5155766;27;42539;-83
2022/01/06 16:06:59;;;;;;;6.27;3.23;;;;;;;3.05;66.75;99279.38;5137441;27;40877;-85
2022/01/06 16:09:28;;;;;;;6.53;3.03;;;;;;;2.87;66.98;99269.34;5172863;27;42967;-85
2022/01/06 16:11:57;;;;;;;3.67;2.40;;;;;;;2.83;68.81;99262.50;5165129;27;42303;-85
